LFJL/ETZ METAR and TAF weather

Enter ICAO airport designator
Station Type Date Time Source
LFJL METAR 2019/10/15 21:00 UTC NOAA

LFJL 152100Z AUTO 21010KT 9999 OVC014 11/11 Q1013 BECMG SCT030 BKN050


Station Type Date Time Source
LFJL Decoded METAR 2019/10/15 21:00 UTC NOAA

Metz-Nancy-Lorraine, France (LFJL) 48-59N 006-15E
Oct 15, 2019 - 05:00 PM EDT / 2019.10.15 2100 UTC
Wind: from the SSW (210 degrees) at 12 MPH (10 KT):0
Visibility: greater than 7 mile(s):0
Sky conditions: overcast
Temperature: 51 F (11 C)
Dew Point: 51 F (11 C)
Relative Humidity: 100%
Pressure (altimeter): 29.91 in. Hg (1013 hPa)
ob: LFJL 152100Z AUTO 21010KT 9999 OVC014 11/11 Q1013 BECMG SCT030 BKN050
cycle: 21

Station Type Date Time Source
LFJL TAF 2019/10/15 18:21 UTC NOAA

TAF LFJL 151700Z 1518/1618 22008KT 9999 BKN015 BKN025 BKN090
TEMPO 1518/1521 4000 RA BKN005
BECMG 1521/1524 SCT030 BKN050
BECMG 1602/1605 16010KT PROB40
TEMPO 1603/1608 BKN008
BECMG 1609/1612 CAVOK

Example: see airport list